Latest Weather Observations for Yarrawonga

IDN60801

Issued at 9:02 pm EDT Thursday 23 March 2017 (issued every 30 minutes, with the page automatically refreshed every 10 minutes)

About weather observations | Map of weather stations | Latest weather observations for NSW | Other Formats
Station Details ID: 081124 Name: YARRAWONGA Lat: -36.03 Lon: 146.03 Height: 128.9 m
Data from the previous 72 hours. | See also: Recent months at Yarrawonga
Date/Time
EDT
Temp
°C
App
Temp
°C
Dew
Point
°C
Rel
Hum
%
Delta-T
°C
Wind Press
QNH
hPa
Press
MSL
hPa
Rain since
9am
mm
Dir  Spd
km/h
Gust
km/h
Spd
kts
Gust
kts
23/09:00pm 19.2 20.0 15.9 81 2.0 SE 6 9 3 5 1017.5 1017.1 0.2
23/08:30pm 19.6 20.4 15.9 79 2.2 SE 6 7 3 4 1017.0 1016.6 0.2
23/08:00pm 20.1 21.0 16.1 78 2.4 SE 6 7 3 4 1016.7 1016.3 0.2
23/07:30pm 21.5 22.1 15.8 70 3.4 SE 7 13 4 7 1016.6 1016.2 0.2
23/07:00pm 22.9 22.8 16.0 65 4.2 SE 11 17 6 9 1016.5 1016.1 0.2
23/06:30pm 24.1 23.4 16.4 62 4.7 SE 15 22 8 12 1016.2 1015.8 0.2
23/06:00pm 25.5 24.7 17.2 60 5.2 ESE 17 24 9 13 1016.0 1015.6 0.2
23/05:30pm 25.6 24.4 16.2 56 5.8 E 17 24 9 13 1015.9 1015.5 0.2
23/05:00pm 25.4 24.7 17.3 61 5.1 ESE 17 26 9 14 1015.9 1015.5 0.2
23/04:30pm 26.3 25.3 17.6 58 5.5 ESE 19 28 10 15 1016.1 1015.7 0.2
23/04:00pm 25.1 24.7 17.1 61 5.0 ESE 15 26 8 14 1016.3 1015.9 0.2
23/03:30pm 24.8 23.8 16.5 60 5.1 SE 17 24 9 13 1016.4 1016.0 0.2
23/03:00pm 25.6 24.8 17.0 59 5.4 SE 17 24 9 13 1016.4 1016.0 0.2
23/02:30pm 25.7 25.4 17.4 60 5.2 SE 15 24 8 13 1016.7 1016.3 0.2
23/02:00pm 25.0 24.4 16.7 60 5.1 SE 15 24 8 13 1016.9 1016.5 0.2
23/01:30pm 25.9 25.2 17.3 59 5.4 SE 17 24 9 13 1017.1 1016.7 0.2
23/01:00pm 26.4 26.2 17.7 58 5.5 SE 15 24 8 13 1017.5 1017.1 0.2
23/12:30pm 24.0 23.6 16.3 62 4.7 SE 13 19 7 10 1017.6 1017.2 0.2
23/12:00pm 24.8 24.7 17.0 62 4.8 SE 13 20 7 11 1017.6 1017.2 0.2
23/11:30am 24.6 23.9 16.3 60 5.1 ESE 15 22 8 12 1017.8 1017.4 0.0
23/11:00am 24.7 24.2 16.9 62 4.8 SE 15 22 8 12 1017.8 1017.4 0.0
23/10:30am 24.1 23.9 17.6 67 4.1 ESE 15 24 8 13 1017.6 1017.2 0.0
23/10:00am 22.7 22.4 16.5 68 3.8 SE 13 19 7 10 1017.5 1017.1 0.0
23/09:30am 21.2 21.3 16.4 74 2.9 SE 11 19 6 10 1017.5 1017.1 0.0
23/09:00am 20.0 19.4 15.6 76 2.6 ESE 13 19 7 10 1017.2 1016.8 14.6
23/08:30am 19.8 20.0 15.7 77 2.4 SE 9 19 5 10 1016.9 1016.5 14.6
23/08:00am 18.8 19.5 15.5 81 2.0 SE 6 7 3 4 1016.7 1016.3 14.6
23/07:30am 17.4 17.9 14.9 85 1.5 SE 6 7 3 4 1016.6 1016.2 14.6
23/07:00am 17.6 18.1 14.9 84 1.6 SE 6 9 3 5 1016.4 1016.0 14.6
23/06:30am 18.0 18.5 15.1 83 1.7 SE 6 11 3 6 1016.1 1015.7 14.6
23/06:00am 18.1 18.5 15.2 83 1.7 SE 7 13 4 7 1015.9 1015.5 14.6
23/05:30am 17.9 18.3 15.2 84 1.6 SE 7 11 4 6 1015.7 1015.3 14.6
23/05:00am 18.1 18.5 15.2 83 1.7 SE 7 11 4 6 1015.6 1015.2 14.6
23/04:30am 18.0 18.6 15.3 84 1.6 SE 6 9 3 5 1015.4 1015.0 14.6
23/04:00am 18.2 18.6 15.3 83 1.7 SE 7 11 4 6 1015.4 1015.0 14.6
23/03:30am 18.6 18.6 15.3 81 1.9 SE 9 15 5 8 1015.3 1014.9 14.6
23/03:00am 18.8 18.8 15.3 80 2.1 SE 9 15 5 8 1015.5 1015.1 14.6
23/02:30am 18.9 19.0 15.6 81 2.0 SE 9 15 5 8 1015.5 1015.1 14.6
23/02:00am 19.6 19.5 15.9 79 2.2 SE 11 17 6 9 1015.7 1015.3 14.6
23/01:30am 19.6 20.0 16.3 81 2.0 SE 9 17 5 9 1015.7 1015.3 14.6
23/01:00am 19.5 20.8 17.1 86 1.5 SE 6 11 3 6 1015.6 1015.2 14.6
23/12:30am 19.1 21.1 17.9 93 0.7 ESE 4 7 2 4 1015.5 1015.1 14.6
23/12:00am 19.3 20.4 18.0 92 0.8 ESE 9 15 5 8 1015.5 1015.1 14.6
 
Date/Time
EDT
Temp
°C
App
Temp
°C
Dew
Point
°C
Rel
Hum
%
Delta-T
°C
Wind Press
QNH
hPa
Press
MSL
hPa
Rain since
9am
mm
Dir  Spd
km/h
Gust
km/h
Spd
kts
Gust
kts
22/11:30pm 19.4 20.8 18.6 95 0.5 ESE 9 13 5 7 1015.6 1015.2 14.6
22/11:00pm 19.7 21.6 18.9 95 0.5 ESE 7 11 4 6 1015.8 1015.4 14.6
22/10:30pm 19.7 20.3 18.7 94 0.6 ESE 13 15 7 8 1015.6 1015.2 14.6
22/10:00pm 19.7 21.2 18.9 95 0.5 ESE 9 13 5 7 1015.1 1014.6 14.4
22/09:30pm 20.9 22.4 19.7 93 0.8 ESE 11 17 6 9 1014.5 1014.1 9.4
22/09:00pm 20.6 21.8 19.8 95 0.5 SE 13 19 7 10 1014.0 1013.6 8.8
22/08:30pm 24.5 26.0 19.8 75 3.0 SE 11 19 6 10 1013.1 1012.7 0.0
22/08:00pm 24.4 29.0 21.7 85 1.8 CALM 0 2 0 1 1012.3 1011.9 0.0
22/07:30pm 25.0 29.3 21.1 79 2.6 CALM 0 2 0 1 1011.8 1011.4 0.0
22/07:00pm 25.9 29.7 20.9 74 3.3 NE 2 4 1 2 1011.5 1011.1 0.0
22/06:30pm 26.6 29.4 20.4 69 4.1 NE 6 7 3 4 1011.3 1010.9 0.0
22/06:00pm 27.2 29.7 20.3 66 4.5 ENE 7 15 4 8 1011.1 1010.7 0.0
22/05:30pm 27.8 30.0 20.4 64 4.9 ENE 9 15 5 8 1011.1 1010.7 0.0
22/05:00pm 27.8 29.5 20.1 63 5.1 NE 11 15 6 8 1011.2 1010.8 0.0
22/04:30pm 27.6 29.7 20.9 67 4.5 NE 11 15 6 8 1011.4 1011.0 0.0
22/04:00pm 26.5 29.0 21.0 72 3.7 NE 9 13 5 7 1011.7 1011.3 0.0
22/03:30pm 26.0 28.8 22.3 80 2.5 NE 11 19 6 10 1012.0 1011.6 0.0
22/03:00pm 26.9 29.3 21.6 72 3.6 E 11 19 6 10 1012.0 1011.6 0.0
22/02:30pm 26.3 29.8 22.2 78 2.8 ESE 7 13 4 7 1012.2 1011.8 0.0
22/02:00pm 25.1 28.6 21.8 82 2.2 ENE 6 7 3 4 1012.6 1012.2 0.0
22/01:30pm 24.4 28.2 22.8 91 1.1 NE 7 13 4 7 1012.4 1012.0 0.0
22/01:00pm 24.6 28.3 22.3 87 1.5 SE 6 7 3 4 1012.9 1012.5 0.0
22/12:30pm 24.2 28.0 22.8 92 0.9 ESE 7 11 4 6 1012.9 1012.5 0.0
22/12:00pm 23.7 28.4 22.7 94 0.7 ESE 2 6 1 3 1013.8 1013.4 0.0
22/11:30am 22.7 26.7 22.7 100 0.0 W 6 9 3 5 1014.3 1013.9 0.0
22/11:00am 22.4 26.6 22.4 100 0.0 WNW 4 7 2 4 1014.3 1013.9 0.0
22/10:30am 22.2 26.3 22.2 100 0.0 W 4 7 2 4 1014.3 1013.9 0.0
22/10:00am 22.1 26.1 22.1 100 0.0 WSW 4 7 2 4 1014.0 1013.6 0.0
22/09:30am 21.5 24.6 21.5 100 0.0 WSW 7 9 4 5 1014.0 1013.6 0.0
22/09:00am 21.4 24.7 21.4 100 0.0 SW 6 7 3 4 1013.8 1013.4 11.2
22/08:30am 21.1 25.0 21.1 100 0.0 WSW 2 6 1 3 1013.6 1013.2 11.2
22/08:00am 20.9 24.3 20.9 100 0.0 SW 4 9 2 5 1013.5 1013.1 11.2
22/07:30am 20.7 24.8 20.7 100 0.0 CALM 0 4 0 2 1012.9 1012.5 11.0
22/07:00am 20.7 24.8 20.7 100 0.0 CALM 0 0 0 0 1012.7 1012.3 10.4
22/06:30am 20.6 23.8 20.6 100 0.0 S 4 6 2 3 1012.2 1011.8 10.2
22/06:00am 20.5 24.1 20.5 100 0.0 SE 2 4 1 2 1012.0 1011.6 10.2
22/05:30am 20.5 23.3 20.5 100 0.0 SE 6 9 3 5 1011.8 1011.4 10.2
22/05:00am 20.4 23.0 20.4 100 0.0 ESE 7 9 4 5 1010.9 1010.5 10.2
22/04:30am 20.5 23.1 20.5 100 0.0 E 7 11 4 6 1010.8 1010.4 10.2
22/04:00am 20.4 24.3 20.4 100 0.0 CALM 0 6 0 3 1011.3 1010.9 10.2
22/03:30am 20.3 23.0 20.3 100 0.0 E 6 6 3 3 1011.5 1011.1 10.2
22/03:00am 19.8 22.3 19.8 100 0.0 E 6 6 3 3 1011.5 1011.1 10.2
22/02:30am 20.0 23.0 20.0 100 0.0 SE 4 6 2 3 1011.3 1010.9 10.2
22/02:00am 20.1 22.7 20.1 100 0.0 E 6 7 3 4 1011.3 1010.9 10.2
22/01:30am 20.4 23.0 20.4 100 0.0 ESE 7 9 4 5 1011.2 1010.8 10.2
22/01:00am 20.9 23.9 20.9 100 0.0 ESE 6 7 3 4 1011.4 1011.0 10.0
22/12:30am 21.0 23.5 21.0 100 0.0 E 9 11 5 6 1011.4 1011.0 10.0
22/12:00am 21.1 24.2 21.1 100 0.0 E 6 6 3 3 1011.7 1011.3 10.0
 
Date/Time
EDT
Temp
°C
App
Temp
°C
Dew
Point
°C
Rel
Hum
%
Delta-T
°C
Wind Press
QNH
hPa
Press
MSL
hPa
Rain since
9am
mm
Dir  Spd
km/h
Gust
km/h
Spd
kts
Gust
kts
21/11:30pm 21.4 24.7 21.4 100 0.0 E 6 9 3 5 1011.4 1011.0 10.0
21/11:00pm 21.6 24.8 21.6 100 0.0 E 7 9 4 5 1011.6 1011.2 10.0
21/10:30pm 21.6 24.8 21.6 100 0.0 E 7 9 4 5 1011.5 1011.1 10.0
21/10:00pm 21.7 24.9 21.7 100 0.0 E 7 9 4 5 1011.4 1011.0 10.0
21/09:30pm 21.8 24.7 21.8 100 0.0 E 9 13 5 7 1011.0 1010.6 10.0
21/09:00pm 22.1 24.8 22.1 100 0.0 E 11 15 6 8 1010.7 1010.3 10.0
21/08:30pm 22.5 26.7 22.5 100 0.0 SE 4 7 2 4 1010.7 1010.3 10.0
21/08:00pm 23.0 27.9 23.0 100 0.0 SE 2 6 1 3 1010.6 1010.2 10.0
21/07:30pm 23.1 26.7 23.1 100 0.0 ESE 9 11 5 6 1010.4 1010.0 10.0
21/07:00pm 23.4 26.9 22.9 97 0.3 ESE 9 15 5 8 1010.4 1010.0 9.8
21/06:30pm 24.1 28.2 23.2 95 0.6 SE 7 11 4 6 1009.9 1009.5 9.8
21/06:00pm 24.9 28.3 23.3 91 1.1 ESE 11 15 6 8 1009.5 1009.1 9.8
21/05:30pm 26.0 29.7 22.5 81 2.4 NE 7 13 4 7 1009.5 1009.1 9.8
21/05:00pm 26.4 30.4 22.7 80 2.5 E 6 9 3 5 1009.7 1009.3 9.8
21/04:30pm 26.6 30.7 23.3 82 2.3 ESE 7 13 4 7 1009.8 1009.4 9.8
21/04:00pm 26.0 30.5 24.0 89 1.4 SE 7 9 4 5 1009.9 1009.5 9.8
21/03:30pm 24.8 28.6 23.4 92 1.0 E 9 13 5 7 1010.4 1010.0 9.8
21/03:00pm 24.4 28.0 23.7 96 0.5 ESE 11 17 6 9 1010.9 1010.5 9.8
21/02:30pm 23.7 27.5 22.7 94 0.7 ENE 7 11 4 6 1011.2 1010.8 9.8
21/02:00pm 23.7 26.0 22.1 91 1.1 ENE 13 19 7 10 1011.7 1011.3 9.8
21/01:30pm 24.3 26.4 22.4 89 1.3 NE 15 20 8 11 1012.0 1011.6 9.8
21/01:00pm 24.0 26.5 23.1 95 0.6 ENE 15 20 8 11 1012.4 1012.0 9.8
21/12:30pm 23.2 25.0 22.5 96 0.5 ENE 17 20 9 11 1012.9 1012.5 9.8
21/12:00pm 23.4 24.8 22.9 97 0.3 ENE 20 26 11 14 1013.0 1012.6 9.8
21/11:30am 22.6 23.9 22.6 100 0.0 ENE 20 28 11 15 1013.0 1012.6 9.8
21/11:00am 21.8 22.6 21.8 100 0.0 ENE 20 26 11 14 1013.1 1012.7 9.8
21/10:30am 21.1 21.7 21.1 100 0.0 E 19 26 10 14 1013.2 1012.8 9.6
21/10:00am 20.8 21.7 20.8 100 0.0 ENE 17 22 9 12 1013.7 1013.3 8.0
21/09:30am 21.0 22.7 21.0 100 0.0 NNE 13 20 7 11 1014.0 1013.6 4.2
21/09:00am 21.3 24.0 21.3 100 0.0 E 9 15 5 8 1013.5 1013.1 8.8
21/08:30am 21.1 23.6 21.1 100 0.0 ESE 9 17 5 9 1013.0 1012.6 8.8
21/08:00am 20.8 22.4 20.8 100 0.0 E 13 17 7 9 1012.9 1012.5 8.8
21/07:30am 20.9 22.6 20.9 100 0.0 E 13 20 7 11 1012.6 1012.2 8.8
21/07:00am 20.9 22.6 20.9 100 0.0 E 13 17 7 9 1013.0 1012.6 7.8
21/06:30am 20.9 21.8 20.9 100 0.0 E 17 20 9 11 1012.7 1012.3 7.8
21/06:00am 21.0 22.4 21.0 100 0.0 E 15 20 8 11 1012.6 1012.2 7.4
21/05:30am 21.1 23.6 21.1 100 0.0 E 9 15 5 8 1012.9 1012.5 7.2
21/05:00am 21.3 24.0 21.3 100 0.0 E 9 13 5 7 1013.0 1012.6 7.0
21/04:30am 21.3 24.0 21.3 100 0.0 E 9 13 5 7 1012.8 1012.4 7.0
21/04:00am 21.2 24.2 21.2 100 0.0 ESE 7 11 4 6 1012.9 1012.5 7.0
21/03:30am 21.3 23.6 21.3 100 0.0 ESE 11 17 6 9 1013.1 1012.7 7.0
21/03:00am 21.3 22.8 21.3 100 0.0 ESE 15 20 8 11 1013.3 1012.9 7.0
21/02:30am 21.4 23.2 21.2 99 0.1 ESE 13 19 7 10 1013.7 1013.3 7.0
21/02:00am 21.5 23.3 21.2 98 0.2 ESE 13 19 7 10 1013.8 1013.4 6.8
21/01:30am 21.3 23.5 21.1 99 0.1 ESE 11 15 6 8 1014.0 1013.6 6.8
21/01:00am 21.4 23.7 21.4 100 0.0 ESE 11 15 6 8 1014.2 1013.8 6.8
21/12:30am 21.3 24.3 21.3 100 0.0 ESE 7 11 4 6 1014.3 1013.9 6.8
21/12:00am 21.4 24.7 21.4 100 0.0 SE 6 9 3 5 1014.5 1014.1 6.6
 
Date/Time
EDT
Temp
°C
App
Temp
°C
Dew
Point
°C
Rel
Hum
%
Delta-T
°C
Wind Press
QNH
hPa
Press
MSL
hPa
Rain since
9am
mm
Dir  Spd
km/h
Gust
km/h
Spd
kts
Gust
kts
20/11:30pm 21.5 24.6 21.5 100 0.0 ESE 7 11 4 6 1014.4 1014.0 6.6
20/11:00pm 21.3 24.9 21.3 100 0.0 SE 4 4 2 2 1014.2 1013.8 6.4
20/10:30pm 21.3 23.8 21.1 99 0.1 E 9 15 5 8 1014.5 1014.1 6.0
20/10:00pm 20.9 18.2 20.4 97 0.3 ENE 35 56 19 30 1015.0 1014.5 2.4
20/09:42pm 22.9 20.6 20.2 85 1.8 NE 32 52 17 28 1014.5 1014.1 0.4
20/09:30pm 25.6 25.0 20.6 74 3.3 E 24 39 13 21 1014.3 1013.9 0.2

Other Formats:

Comma delimited format used in spreadsheet applications
http://www.bom.gov.au/fwo/IDN60801/IDN60801.94862.axf

JavaScript Object Notation format (JSON) in row-major order
http://www.bom.gov.au/fwo/IDN60801/IDN60801.94862.json